sensor_id;sensor_type;location;lat;lon;timestamp;P1;durP1;ratioP1;P2;durP2;ratioP2
37049;SDS011;22958;51.232;6.826;2023-11-19T00:01:55;17.47;;;10.13;;
37049;SDS011;22958;51.232;6.826;2023-11-19T00:04:21;13.77;;;10.07;;
37049;SDS011;22958;51.232;6.826;2023-11-19T00:06:47;15.50;;;9.68;;
37049;SDS011;22958;51.232;6.826;2023-11-19T00:09:13;15.40;;;10.03;;
37049;SDS011;22958;51.232;6.826;2023-11-19T00:11:40;12.63;;;8.52;;
37049;SDS011;22958;51.232;6.826;2023-11-19T00:14:05;11.73;;;8.27;;
37049;SDS011;22958;51.232;6.826;2023-11-19T00:16:33;13.05;;;7.40;;
37049;SDS011;22958;51.232;6.826;2023-11-19T00:18:59;9.75;;;6.68;;
37049;SDS011;22958;51.232;6.826;2023-11-19T00:21:25;12.27;;;7.07;;
37049;SDS011;22958;51.232;6.826;2023-11-19T00:23:53;17.02;;;7.40;;
37049;SDS011;22958;51.232;6.826;2023-11-19T00:26:19;12.97;;;5.90;;
37049;SDS011;22958;51.232;6.826;2023-11-19T00:28:45;9.13;;;6.33;;
37049;SDS011;22958;51.232;6.826;2023-11-19T00:31:12;11.43;;;6.10;;
37049;SDS011;22958;51.232;6.826;2023-11-19T00:33:38;10.47;;;7.17;;
37049;SDS011;22958;51.232;6.826;2023-11-19T00:36:04;13.55;;;6.70;;
37049;SDS011;22958;51.232;6.826;2023-11-19T00:38:30;11.15;;;7.35;;
37049;SDS011;22958;51.232;6.826;2023-11-19T00:40:56;13.77;;;7.03;;
37049;SDS011;22958;51.232;6.826;2023-11-19T00:43:21;16.03;;;8.50;;
37049;SDS011;22958;51.232;6.826;2023-11-19T00:45:47;12.67;;;7.33;;
37049;SDS011;22958;51.232;6.826;2023-11-19T00:48:15;12.60;;;7.72;;
37049;SDS011;22958;51.232;6.826;2023-11-19T00:50:41;17.20;;;7.73;;
37049;SDS011;22958;51.232;6.826;2023-11-19T00:53:09;10.65;;;6.60;;
37049;SDS011;22958;51.232;6.826;2023-11-19T00:55:35;15.97;;;7.70;;
37049;SDS011;22958;51.232;6.826;2023-11-19T00:58:00;13.63;;;7.60;;
37049;SDS011;22958;51.232;6.826;2023-11-19T01:00:25;13.40;;;7.60;;
37049;SDS011;22958;51.232;6.826;2023-11-19T01:02:52;16.73;;;7.68;;
37049;SDS011;22958;51.232;6.826;2023-11-19T01:05:18;18.27;;;8.50;;
37049;SDS011;22958;51.232;6.826;2023-11-19T01:07:47;12.82;;;7.72;;
37049;SDS011;22958;51.232;6.826;2023-11-19T01:10:13;12.98;;;7.63;;
37049;SDS011;22958;51.232;6.826;2023-11-19T01:12:38;13.33;;;7.80;;
37049;SDS011;22958;51.232;6.826;2023-11-19T01:15:05;16.47;;;8.30;;
37049;SDS011;22958;51.232;6.826;2023-11-19T01:19:59;9.25;;;4.65;;
37049;SDS011;22958;51.232;6.826;2023-11-19T01:22:25;8.17;;;2.90;;
37049;SDS011;22958;51.232;6.826;2023-11-19T01:24:51;5.95;;;2.38;;
37049;SDS011;22958;51.232;6.826;2023-11-19T01:27:17;4.25;;;2.45;;
37049;SDS011;22958;51.232;6.826;2023-11-19T01:29:42;4.20;;;1.53;;
37049;SDS011;22958;51.232;6.826;2023-11-19T01:32:08;5.00;;;1.53;;
37049;SDS011;22958;51.232;6.826;2023-11-19T01:34:33;5.70;;;1.20;;
37049;SDS011;22958;51.232;6.826;2023-11-19T01:36:59;3.03;;;1.20;;
37049;SDS011;22958;51.232;6.826;2023-11-19T01:39:25;3.87;;;1.43;;
37049;SDS011;22958;51.232;6.826;2023-11-19T01:41:50;7.03;;;1.10;;
37049;SDS011;22958;51.232;6.826;2023-11-19T01:44:16;2.87;;;1.00;;
37049;SDS011;22958;51.232;6.826;2023-11-19T01:46:43;3.28;;;1.08;;
37049;SDS011;22958;51.232;6.826;2023-11-19T01:49:12;3.25;;;0.93;;
37049;SDS011;22958;51.232;6.826;2023-11-19T01:51:40;3.25;;;0.95;;
37049;SDS011;22958;51.232;6.826;2023-11-19T01:54:06;4.75;;;1.13;;
37049;SDS011;22958;51.232;6.826;2023-11-19T01:56:33;3.60;;;0.98;;
37049;SDS011;22958;51.232;6.826;2023-11-19T01:58:59;2.70;;;1.15;;
37049;SDS011;22958;51.232;6.826;2023-11-19T02:01:25;5.43;;;1.25;;
37049;SDS011;22958;51.232;6.826;2023-11-19T02:03:51;5.43;;;1.30;;
37049;SDS011;22958;51.232;6.826;2023-11-19T02:06:17;7.70;;;1.57;;
37049;SDS011;22958;51.232;6.826;2023-11-19T02:08:43;2.57;;;1.20;;
37049;SDS011;22958;51.232;6.826;2023-11-19T02:11:08;3.30;;;1.50;;
37049;SDS011;22958;51.232;6.826;2023-11-19T02:13:36;3.97;;;1.30;;
37049;SDS011;22958;51.232;6.826;2023-11-19T02:16:02;7.40;;;1.77;;
37049;SDS011;22958;51.232;6.826;2023-11-19T02:18:28;5.30;;;1.60;;
37049;SDS011;22958;51.232;6.826;2023-11-19T02:20:55;7.18;;;1.73;;
37049;SDS011;22958;51.232;6.826;2023-11-19T02:23:24;4.57;;;1.77;;
37049;SDS011;22958;51.232;6.826;2023-11-19T02:25:56;6.68;;;2.22;;
37049;SDS011;22958;51.232;6.826;2023-11-19T02:28:30;9.93;;;2.08;;
37049;SDS011;22958;51.232;6.826;2023-11-19T02:30:57;13.93;;;1.88;;
37049;SDS011;22958;51.232;6.826;2023-11-19T02:33:24;10.57;;;2.10;;
37049;SDS011;22958;51.232;6.826;2023-11-19T02:35:50;9.33;;;2.17;;
37049;SDS011;22958;51.232;6.826;2023-11-19T02:38:16;14.27;;;3.15;;
37049;SDS011;22958;51.232;6.826;2023-11-19T02:40:42;11.37;;;2.27;;
37049;SDS011;22958;51.232;6.826;2023-11-19T02:43:07;11.13;;;2.37;;
37049;SDS011;22958;51.232;6.826;2023-11-19T02:45:33;16.15;;;3.08;;
37049;SDS011;22958;51.232;6.826;2023-11-19T02:47:59;12.30;;;2.77;;
37049;SDS011;22958;51.232;6.826;2023-11-19T02:50:26;17.00;;;3.75;;
37049;SDS011;22958;51.232;6.826;2023-11-19T02:52:53;18.10;;;2.73;;
37049;SDS011;22958;51.232;6.826;2023-11-19T02:55:21;17.27;;;2.90;;
37049;SDS011;22958;51.232;6.826;2023-11-19T02:57:48;19.50;;;3.47;;
37049;SDS011;22958;51.232;6.826;2023-11-19T03:00:21;15.02;;;3.33;;
37049;SDS011;22958;51.232;6.826;2023-11-19T03:03:00;13.27;;;3.55;;
37049;SDS011;22958;51.232;6.826;2023-11-19T03:05:43;17.98;;;3.40;;
37049;SDS011;22958;51.232;6.826;2023-11-19T03:10:35;23.48;;;3.80;;
37049;SDS011;22958;51.232;6.826;2023-11-19T03:13:01;15.33;;;3.33;;
37049;SDS011;22958;51.232;6.826;2023-11-19T03:15:28;13.75;;;3.03;;
37049;SDS011;22958;51.232;6.826;2023-11-19T03:17:53;17.17;;;3.23;;
37049;SDS011;22958;51.232;6.826;2023-11-19T03:20:19;15.07;;;2.87;;
37049;SDS011;22958;51.232;6.826;2023-11-19T03:22:45;16.98;;;3.67;;
37049;SDS011;22958;51.232;6.826;2023-11-19T03:25:11;19.00;;;3.63;;
37049;SDS011;22958;51.232;6.826;2023-11-19T03:27:38;16.85;;;3.88;;
37049;SDS011;22958;51.232;6.826;2023-11-19T03:30:04;20.02;;;3.30;;
37049;SDS011;22958;51.232;6.826;2023-11-19T03:32:31;27.15;;;3.70;;
37049;SDS011;22958;51.232;6.826;2023-11-19T03:37:24;29.33;;;4.65;;
37049;SDS011;22958;51.232;6.826;2023-11-19T03:42:18;23.90;;;3.47;;
37049;SDS011;22958;51.232;6.826;2023-11-19T03:44:44;21.63;;;3.60;;
37049;SDS011;22958;51.232;6.826;2023-11-19T03:47:09;25.20;;;3.13;;
37049;SDS011;22958;51.232;6.826;2023-11-19T03:49:35;19.30;;;3.50;;
37049;SDS011;22958;51.232;6.826;2023-11-19T03:52:01;30.30;;;4.20;;
37049;SDS011;22958;51.232;6.826;2023-11-19T03:54:26;28.33;;;3.97;;
37049;SDS011;22958;51.232;6.826;2023-11-19T03:56:52;22.58;;;3.40;;
37049;SDS011;22958;51.232;6.826;2023-11-19T03:59:18;14.97;;;3.10;;
37049;SDS011;22958;51.232;6.826;2023-11-19T04:01:45;22.75;;;3.63;;
37049;SDS011;22958;51.232;6.826;2023-11-19T04:04:11;31.80;;;3.87;;
37049;SDS011;22958;51.232;6.826;2023-11-19T04:06:37;29.50;;;4.43;;
37049;SDS011;22958;51.232;6.826;2023-11-19T04:09:03;16.43;;;3.60;;
37049;SDS011;22958;51.232;6.826;2023-11-19T04:11:28;29.07;;;4.83;;
37049;SDS011;22958;51.232;6.826;2023-11-19T04:13:54;25.60;;;4.43;;
37049;SDS011;22958;51.232;6.826;2023-11-19T04:16:19;23.53;;;3.63;;
37049;SDS011;22958;51.232;6.826;2023-11-19T04:18:51;30.52;;;3.85;;
37049;SDS011;22958;51.232;6.826;2023-11-19T04:21:17;28.33;;;4.00;;
37049;SDS011;22958;51.232;6.826;2023-11-19T04:23:42;23.33;;;4.17;;
37049;SDS011;22958;51.232;6.826;2023-11-19T04:26:08;30.70;;;4.53;;
37049;SDS011;22958;51.232;6.826;2023-11-19T04:28:33;35.17;;;5.33;;
37049;SDS011;22958;51.232;6.826;2023-11-19T04:30:59;35.17;;;4.57;;
37049;SDS011;22958;51.232;6.826;2023-11-19T04:33:24;26.90;;;3.37;;
37049;SDS011;22958;51.232;6.826;2023-11-19T04:35:50;36.93;;;4.10;;
37049;SDS011;22958;51.232;6.826;2023-11-19T04:38:15;34.03;;;4.23;;
37049;SDS011;22958;51.232;6.826;2023-11-19T04:40:41;27.63;;;3.90;;
37049;SDS011;22958;51.232;6.826;2023-11-19T04:43:07;29.77;;;3.90;;
37049;SDS011;22958;51.232;6.826;2023-11-19T04:45:32;28.57;;;4.33;;
37049;SDS011;22958;51.232;6.826;2023-11-19T04:47:58;25.23;;;4.03;;
37049;SDS011;22958;51.232;6.826;2023-11-19T04:50:23;31.40;;;3.97;;
37049;SDS011;22958;51.232;6.826;2023-11-19T04:52:52;30.20;;;4.68;;
37049;SDS011;22958;51.232;6.826;2023-11-19T04:57:44;34.10;;;4.82;;
37049;SDS011;22958;51.232;6.826;2023-11-19T05:00:09;33.23;;;3.47;;
37049;SDS011;22958;51.232;6.826;2023-11-19T05:02:36;27.25;;;4.32;;
37049;SDS011;22958;51.232;6.826;2023-11-19T05:05:02;30.35;;;4.15;;
37049;SDS011;22958;51.232;6.826;2023-11-19T05:07:29;24.80;;;4.22;;
37049;SDS011;22958;51.232;6.826;2023-11-19T05:09:55;34.70;;;5.30;;
37049;SDS011;22958;51.232;6.826;2023-11-19T05:12:20;22.90;;;4.17;;
37049;SDS011;22958;51.232;6.826;2023-11-19T05:14:46;29.87;;;4.83;;
37049;SDS011;22958;51.232;6.826;2023-11-19T05:17:15;36.53;;;5.03;;
37049;SDS011;22958;51.232;6.826;2023-11-19T05:19:42;35.92;;;5.32;;
37049;SDS011;22958;51.232;6.826;2023-11-19T05:22:08;36.43;;;4.37;;
37049;SDS011;22958;51.232;6.826;2023-11-19T05:24:34;42.57;;;4.63;;
37049;SDS011;22958;51.232;6.826;2023-11-19T05:29:26;31.90;;;4.80;;
37049;SDS011;22958;51.232;6.826;2023-11-19T05:31:52;35.10;;;4.85;;
37049;SDS011;22958;51.232;6.826;2023-11-19T05:34:20;32.75;;;5.97;;
37049;SDS011;22958;51.232;6.826;2023-11-19T05:36:46;32.90;;;5.75;;
37049;SDS011;22958;51.232;6.826;2023-11-19T05:39:11;34.90;;;5.10;;
37049;SDS011;22958;51.232;6.826;2023-11-19T05:41:37;39.17;;;5.77;;
37049;SDS011;22958;51.232;6.826;2023-11-19T05:44:02;32.00;;;5.37;;
37049;SDS011;22958;51.232;6.826;2023-11-19T05:46:28;33.90;;;4.43;;
37049;SDS011;22958;51.232;6.826;2023-11-19T05:48:54;35.23;;;5.87;;
37049;SDS011;22958;51.232;6.826;2023-11-19T05:51:19;35.50;;;4.90;;
37049;SDS011;22958;51.232;6.826;2023-11-19T05:53:45;35.70;;;5.10;;
37049;SDS011;22958;51.232;6.826;2023-11-19T05:56:10;30.70;;;4.73;;
37049;SDS011;22958;51.232;6.826;2023-11-19T05:58:36;29.33;;;4.70;;
37049;SDS011;22958;51.232;6.826;2023-11-19T06:01:04;28.10;;;4.53;;
37049;SDS011;22958;51.232;6.826;2023-11-19T06:03:32;28.13;;;4.70;;
37049;SDS011;22958;51.232;6.826;2023-11-19T06:05:58;37.60;;;6.00;;
37049;SDS011;22958;51.232;6.826;2023-11-19T06:08:23;40.67;;;5.53;;
37049;SDS011;22958;51.232;6.826;2023-11-19T06:10:52;46.58;;;5.68;;
37049;SDS011;22958;51.232;6.826;2023-11-19T06:13:17;33.00;;;5.00;;
37049;SDS011;22958;51.232;6.826;2023-11-19T06:15:43;42.43;;;4.73;;
37049;SDS011;22958;51.232;6.826;2023-11-19T06:18:09;35.00;;;4.67;;
37049;SDS011;22958;51.232;6.826;2023-11-19T06:20:36;36.63;;;5.72;;
37049;SDS011;22958;51.232;6.826;2023-11-19T06:23:02;36.20;;;4.97;;
37049;SDS011;22958;51.232;6.826;2023-11-19T06:25:27;36.17;;;5.20;;
37049;SDS011;22958;51.232;6.826;2023-11-19T06:27:53;34.20;;;4.30;;
37049;SDS011;22958;51.232;6.826;2023-11-19T06:30:19;33.33;;;5.73;;
37049;SDS011;22958;51.232;6.826;2023-11-19T06:32:45;39.75;;;5.00;;
37049;SDS011;22958;51.232;6.826;2023-11-19T06:35:11;32.23;;;5.43;;
37049;SDS011;22958;51.232;6.826;2023-11-19T06:37:39;37.13;;;5.97;;
37049;SDS011;22958;51.232;6.826;2023-11-19T06:40:06;39.28;;;5.80;;
37049;SDS011;22958;51.232;6.826;2023-11-19T06:42:34;31.92;;;5.68;;
37049;SDS011;22958;51.232;6.826;2023-11-19T06:44:59;41.87;;;5.83;;
37049;SDS011;22958;51.232;6.826;2023-11-19T06:47:26;49.70;;;7.43;;
37049;SDS011;22958;51.232;6.826;2023-11-19T06:49:52;49.85;;;6.10;;
37049;SDS011;22958;51.232;6.826;2023-11-19T06:52:18;42.67;;;5.60;;
37049;SDS011;22958;51.232;6.826;2023-11-19T06:54:44;38.83;;;5.67;;
37049;SDS011;22958;51.232;6.826;2023-11-19T06:57:10;31.42;;;5.80;;
37049;SDS011;22958;51.232;6.826;2023-11-19T06:59:36;44.85;;;5.50;;
37049;SDS011;22958;51.232;6.826;2023-11-19T07:02:02;30.53;;;4.93;;
37049;SDS011;22958;51.232;6.826;2023-11-19T07:04:28;37.87;;;5.23;;
37049;SDS011;22958;51.232;6.826;2023-11-19T07:06:53;39.23;;;5.97;;
37049;SDS011;22958;51.232;6.826;2023-11-19T07:09:19;49.83;;;6.40;;
37049;SDS011;22958;51.232;6.826;2023-11-19T07:11:44;40.40;;;5.43;;
37049;SDS011;22958;51.232;6.826;2023-11-19T07:14:10;38.60;;;4.80;;
37049;SDS011;22958;51.232;6.826;2023-11-19T07:16:36;39.13;;;5.88;;
37049;SDS011;22958;51.232;6.826;2023-11-19T07:19:03;30.25;;;4.70;;
37049;SDS011;22958;51.232;6.826;2023-11-19T07:21:30;49.55;;;7.00;;
37049;SDS011;22958;51.232;6.826;2023-11-19T07:23:56;41.30;;;6.40;;
37049;SDS011;22958;51.232;6.826;2023-11-19T07:26:21;43.83;;;5.63;;
37049;SDS011;22958;51.232;6.826;2023-11-19T07:28:47;37.80;;;6.27;;
37049;SDS011;22958;51.232;6.826;2023-11-19T07:31:13;40.28;;;5.55;;
37049;SDS011;22958;51.232;6.826;2023-11-19T07:33:39;38.47;;;6.07;;
37049;SDS011;22958;51.232;6.826;2023-11-19T07:36:07;43.60;;;6.00;;
37049;SDS011;22958;51.232;6.826;2023-11-19T07:38:33;42.03;;;6.43;;
37049;SDS011;22958;51.232;6.826;2023-11-19T07:40:59;46.83;;;5.77;;
37049;SDS011;22958;51.232;6.826;2023-11-19T07:43:25;47.40;;;6.23;;
37049;SDS011;22958;51.232;6.826;2023-11-19T07:45:50;37.70;;;5.50;;
37049;SDS011;22958;51.232;6.826;2023-11-19T07:48:16;48.03;;;6.27;;
37049;SDS011;22958;51.232;6.826;2023-11-19T07:50:43;37.95;;;5.38;;
37049;SDS011;22958;51.232;6.826;2023-11-19T07:53:08;36.33;;;6.40;;
37049;SDS011;22958;51.232;6.826;2023-11-19T07:55:34;43.33;;;5.10;;
37049;SDS011;22958;51.232;6.826;2023-11-19T07:57:59;38.50;;;6.60;;
37049;SDS011;22958;51.232;6.826;2023-11-19T08:00:26;57.72;;;7.50;;
37049;SDS011;22958;51.232;6.826;2023-11-19T08:02:51;38.77;;;6.03;;
37049;SDS011;22958;51.232;6.826;2023-11-19T08:05:17;36.93;;;5.67;;
37049;SDS011;22958;51.232;6.826;2023-11-19T08:07:42;29.07;;;5.50;;
37049;SDS011;22958;51.232;6.826;2023-11-19T08:10:08;40.50;;;4.80;;
37049;SDS011;22958;51.232;6.826;2023-11-19T08:12:37;39.75;;;6.55;;
37049;SDS011;22958;51.232;6.826;2023-11-19T08:15:03;40.23;;;6.40;;
37049;SDS011;22958;51.232;6.826;2023-11-19T08:17:29;41.05;;;6.82;;
37049;SDS011;22958;51.232;6.826;2023-11-19T08:19:55;40.17;;;5.63;;
37049;SDS011;22958;51.232;6.826;2023-11-19T08:22:21;32.77;;;4.70;;
37049;SDS011;22958;51.232;6.826;2023-11-19T08:24:47;53.88;;;6.72;;
37049;SDS011;22958;51.232;6.826;2023-11-19T08:27:13;43.23;;;6.83;;
37049;SDS011;22958;51.232;6.826;2023-11-19T08:29:38;35.73;;;5.00;;
37049;SDS011;22958;51.232;6.826;2023-11-19T08:32:04;34.87;;;5.20;;
37049;SDS011;22958;51.232;6.826;2023-11-19T08:34:31;37.60;;;6.05;;
37049;SDS011;22958;51.232;6.826;2023-11-19T08:36:56;35.27;;;5.93;;
37049;SDS011;22958;51.232;6.826;2023-11-19T08:39:22;48.27;;;6.07;;
37049;SDS011;22958;51.232;6.826;2023-11-19T08:41:47;41.33;;;5.63;;
37049;SDS011;22958;51.232;6.826;2023-11-19T08:44:13;42.47;;;6.00;;
37049;SDS011;22958;51.232;6.826;2023-11-19T08:46:45;40.92;;;5.53;;
37049;SDS011;22958;51.232;6.826;2023-11-19T08:49:14;42.03;;;6.55;;
37049;SDS011;22958;51.232;6.826;2023-11-19T08:51:40;47.30;;;6.30;;
37049;SDS011;22958;51.232;6.826;2023-11-19T08:54:06;42.47;;;5.55;;
37049;SDS011;22958;51.232;6.826;2023-11-19T08:56:32;41.63;;;5.33;;
37049;SDS011;22958;51.232;6.826;2023-11-19T08:58:59;49.10;;;6.28;;
37049;SDS011;22958;51.232;6.826;2023-11-19T09:01:25;48.10;;;7.47;;
37049;SDS011;22958;51.232;6.826;2023-11-19T09:03:50;32.37;;;5.37;;
37049;SDS011;22958;51.232;6.826;2023-11-19T09:06:17;40.55;;;6.70;;
37049;SDS011;22958;51.232;6.826;2023-11-19T09:08:42;33.88;;;5.05;;
37049;SDS011;22958;51.232;6.826;2023-11-19T09:11:09;43.25;;;6.53;;
37049;SDS011;22958;51.232;6.826;2023-11-19T09:13:35;35.23;;;5.87;;
37049;SDS011;22958;51.232;6.826;2023-11-19T09:16:01;41.53;;;5.00;;
37049;SDS011;22958;51.232;6.826;2023-11-19T09:18:29;37.70;;;6.30;;
37049;SDS011;22958;51.232;6.826;2023-11-19T09:20:56;40.90;;;5.38;;
37049;SDS011;22958;51.232;6.826;2023-11-19T09:23:22;39.85;;;5.88;;
37049;SDS011;22958;51.232;6.826;2023-11-19T09:25:50;44.83;;;6.03;;
37049;SDS011;22958;51.232;6.826;2023-11-19T09:28:15;39.40;;;5.50;;
37049;SDS011;22958;51.232;6.826;2023-11-19T09:30:41;54.50;;;6.73;;
37049;SDS011;22958;51.232;6.826;2023-11-19T09:33:06;50.10;;;6.33;;
37049;SDS011;22958;51.232;6.826;2023-11-19T09:35:32;39.03;;;6.03;;
37049;SDS011;22958;51.232;6.826;2023-11-19T09:37:58;42.13;;;6.43;;
37049;SDS011;22958;51.232;6.826;2023-11-19T09:40:24;49.33;;;7.07;;
37049;SDS011;22958;51.232;6.826;2023-11-19T09:42:50;41.42;;;5.85;;
37049;SDS011;22958;51.232;6.826;2023-11-19T09:45:16;31.77;;;5.63;;
37049;SDS011;22958;51.232;6.826;2023-11-19T09:47:43;43.42;;;5.90;;
37049;SDS011;22958;51.232;6.826;2023-11-19T09:50:11;52.28;;;6.32;;
37049;SDS011;22958;51.232;6.826;2023-11-19T09:52:42;50.10;;;6.97;;
37049;SDS011;22958;51.232;6.826;2023-11-19T09:55:07;54.90;;;6.10;;
37049;SDS011;22958;51.232;6.826;2023-11-19T09:57:33;47.45;;;7.43;;
37049;SDS011;22958;51.232;6.826;2023-11-19T10:00:02;38.92;;;5.53;;
37049;SDS011;22958;51.232;6.826;2023-11-19T10:02:30;40.38;;;7.53;;
37049;SDS011;22958;51.232;6.826;2023-11-19T10:04:58;51.08;;;7.22;;
37049;SDS011;22958;51.232;6.826;2023-11-19T10:07:27;44.75;;;6.22;;
37049;SDS011;22958;51.232;6.826;2023-11-19T10:09:53;42.17;;;6.10;;
37049;SDS011;22958;51.232;6.826;2023-11-19T10:12:19;34.33;;;5.77;;
37049;SDS011;22958;51.232;6.826;2023-11-19T10:14:44;37.43;;;5.90;;
37049;SDS011;22958;51.232;6.826;2023-11-19T10:17:12;50.95;;;6.75;;
37049;SDS011;22958;51.232;6.826;2023-11-19T10:19:39;32.43;;;5.23;;
37049;SDS011;22958;51.232;6.826;2023-11-19T10:22:06;43.85;;;6.80;;
37049;SDS011;22958;51.232;6.826;2023-11-19T10:24:32;45.80;;;7.13;;
37049;SDS011;22958;51.232;6.826;2023-11-19T10:26:59;55.50;;;6.85;;
37049;SDS011;22958;51.232;6.826;2023-11-19T10:29:29;31.30;;;5.95;;
37049;SDS011;22958;51.232;6.826;2023-11-19T10:31:57;45.65;;;5.85;;
37049;SDS011;22958;51.232;6.826;2023-11-19T10:34:24;40.97;;;5.70;;
37049;SDS011;22958;51.232;6.826;2023-11-19T10:36:51;42.10;;;7.10;;
37049;SDS011;22958;51.232;6.826;2023-11-19T10:39:16;36.60;;;5.90;;
37049;SDS011;22958;51.232;6.826;2023-11-19T10:41:43;38.72;;;5.85;;
37049;SDS011;22958;51.232;6.826;2023-11-19T10:44:09;40.00;;;6.18;;
37049;SDS011;22958;51.232;6.826;2023-11-19T10:46:38;35.90;;;5.63;;
37049;SDS011;22958;51.232;6.826;2023-11-19T10:49:05;40.03;;;5.50;;
37049;SDS011;22958;51.232;6.826;2023-11-19T10:51:31;54.83;;;6.32;;
37049;SDS011;22958;51.232;6.826;2023-11-19T10:53:58;45.17;;;6.57;;
37049;SDS011;22958;51.232;6.826;2023-11-19T10:56:30;48.67;;;6.60;;
37049;SDS011;22958;51.232;6.826;2023-11-19T10:58:57;50.75;;;7.38;;
37049;SDS011;22958;51.232;6.826;2023-11-19T11:01:26;33.17;;;6.07;;
37049;SDS011;22958;51.232;6.826;2023-11-19T11:03:59;33.85;;;5.90;;
37049;SDS011;22958;51.232;6.826;2023-11-19T11:06:26;43.53;;;5.65;;
37049;SDS011;22958;51.232;6.826;2023-11-19T11:08:52;28.95;;;5.50;;
37049;SDS011;22958;51.232;6.826;2023-11-19T11:11:19;37.50;;;5.65;;
37049;SDS011;22958;51.232;6.826;2023-11-19T11:13:46;40.30;;;6.32;;
37049;SDS011;22958;51.232;6.826;2023-11-19T11:16:14;31.75;;;4.55;;
37049;SDS011;22958;51.232;6.826;2023-11-19T11:18:40;37.17;;;4.97;;
37049;SDS011;22958;51.232;6.826;2023-11-19T11:29:05;28.73;;;4.93;;
37049;SDS011;22958;51.232;6.826;2023-11-19T11:40:04;29.27;;;4.72;;
37049;SDS011;22958;51.232;6.826;2023-11-19T11:42:35;38.80;;;4.90;;
37049;SDS011;22958;51.232;6.826;2023-11-19T11:45:06;36.63;;;5.90;;
37049;SDS011;22958;51.232;6.826;2023-11-19T11:58:07;37.28;;;5.43;;
37049;SDS011;22958;51.232;6.826;2023-11-19T12:00:37;38.17;;;6.03;;
37049;SDS011;22958;51.232;6.826;2023-11-19T12:03:04;29.98;;;5.32;;
37049;SDS011;22958;51.232;6.826;2023-11-19T12:05:31;30.75;;;5.35;;
37049;SDS011;22958;51.232;6.826;2023-11-19T12:08:01;39.13;;;5.68;;
37049;SDS011;22958;51.232;6.826;2023-11-19T12:10:32;30.83;;;4.53;;
37049;SDS011;22958;51.232;6.826;2023-11-19T12:13:09;42.00;;;5.25;;
37049;SDS011;22958;51.232;6.826;2023-11-19T12:18:21;37.17;;;5.05;;
37049;SDS011;22958;51.232;6.826;2023-11-19T12:20:57;30.58;;;5.22;;
37049;SDS011;22958;51.232;6.826;2023-11-19T12:23:27;27.60;;;5.40;;
37049;SDS011;22958;51.232;6.826;2023-11-19T12:25:54;26.88;;;4.22;;
37049;SDS011;22958;51.232;6.826;2023-11-19T12:28:20;35.40;;;4.60;;
37049;SDS011;22958;51.232;6.826;2023-11-19T12:30:45;25.43;;;4.63;;
37049;SDS011;22958;51.232;6.826;2023-11-19T12:33:13;28.30;;;4.80;;
37049;SDS011;22958;51.232;6.826;2023-11-19T12:38:24;39.92;;;4.78;;
37049;SDS011;22958;51.232;6.826;2023-11-19T12:43:48;46.85;;;6.35;;
37049;SDS011;22958;51.232;6.826;2023-11-19T12:46:17;39.53;;;5.50;;
37049;SDS011;22958;51.232;6.826;2023-11-19T12:48:47;31.45;;;5.03;;
37049;SDS011;22958;51.232;6.826;2023-11-19T12:51:13;34.30;;;5.00;;
37049;SDS011;22958;51.232;6.826;2023-11-19T12:53:48;27.27;;;4.53;;
37049;SDS011;22958;51.232;6.826;2023-11-19T12:56:22;26.98;;;4.97;;
37049;SDS011;22958;51.232;6.826;2023-11-19T12:58:49;31.80;;;4.72;;
37049;SDS011;22958;51.232;6.826;2023-11-19T13:01:16;18.60;;;3.70;;
37049;SDS011;22958;51.232;6.826;2023-11-19T13:03:43;24.55;;;4.18;;
37049;SDS011;22958;51.232;6.826;2023-11-19T13:06:10;30.58;;;4.10;;
37049;SDS011;22958;51.232;6.826;2023-11-19T13:08:37;33.47;;;4.25;;
37049;SDS011;22958;51.232;6.826;2023-11-19T13:11:04;31.70;;;5.15;;
37049;SDS011;22958;51.232;6.826;2023-11-19T13:13:31;33.63;;;5.13;;
37049;SDS011;22958;51.232;6.826;2023-11-19T13:16:03;24.45;;;4.40;;
37049;SDS011;22958;51.232;6.826;2023-11-19T13:18:32;29.15;;;4.03;;
37049;SDS011;22958;51.232;6.826;2023-11-19T13:20:57;31.77;;;4.80;;
37049;SDS011;22958;51.232;6.826;2023-11-19T13:23:23;34.63;;;5.00;;
37049;SDS011;22958;51.232;6.826;2023-11-19T13:25:48;37.23;;;3.70;;
37049;SDS011;22958;51.232;6.826;2023-11-19T13:28:14;35.10;;;4.40;;
37049;SDS011;22958;51.232;6.826;2023-11-19T13:30:39;34.90;;;5.23;;
37049;SDS011;22958;51.232;6.826;2023-11-19T13:33:05;32.30;;;5.13;;
37049;SDS011;22958;51.232;6.826;2023-11-19T13:35:30;25.80;;;4.33;;
37049;SDS011;22958;51.232;6.826;2023-11-19T13:37:56;19.23;;;4.43;;
37049;SDS011;22958;51.232;6.826;2023-11-19T13:40:21;29.00;;;4.10;;
37049;SDS011;22958;51.232;6.826;2023-11-19T13:42:49;30.27;;;5.25;;
37049;SDS011;22958;51.232;6.826;2023-11-19T13:45:15;29.80;;;4.63;;
37049;SDS011;22958;51.232;6.826;2023-11-19T13:47:43;24.92;;;4.90;;
37049;SDS011;22958;51.232;6.826;2023-11-19T13:50:10;30.77;;;5.00;;
37049;SDS011;22958;51.232;6.826;2023-11-19T13:52:41;31.35;;;4.45;;
37049;SDS011;22958;51.232;6.826;2023-11-19T13:55:08;26.67;;;4.80;;
37049;SDS011;22958;51.232;6.826;2023-11-19T13:57:35;28.30;;;4.40;;
37049;SDS011;22958;51.232;6.826;2023-11-19T14:00:05;29.83;;;4.43;;
37049;SDS011;22958;51.232;6.826;2023-11-19T14:02:35;29.90;;;4.57;;
37049;SDS011;22958;51.232;6.826;2023-11-19T14:05:01;30.17;;;4.80;;
37049;SDS011;22958;51.232;6.826;2023-11-19T14:07:27;26.27;;;4.63;;
37049;SDS011;22958;51.232;6.826;2023-11-19T14:09:53;37.88;;;5.07;;
37049;SDS011;22958;51.232;6.826;2023-11-19T14:12:19;32.80;;;5.70;;
37049;SDS011;22958;51.232;6.826;2023-11-19T14:14:45;40.55;;;5.70;;
37049;SDS011;22958;51.232;6.826;2023-11-19T14:17:10;43.40;;;6.27;;
37049;SDS011;22958;51.232;6.826;2023-11-19T14:19:36;25.40;;;4.57;;
37049;SDS011;22958;51.232;6.826;2023-11-19T14:22:04;35.33;;;5.03;;
37049;SDS011;22958;51.232;6.826;2023-11-19T14:24:29;35.30;;;5.17;;
37049;SDS011;22958;51.232;6.826;2023-11-19T14:26:55;37.70;;;5.03;;
37049;SDS011;22958;51.232;6.826;2023-11-19T14:29:23;28.75;;;5.00;;
37049;SDS011;22958;51.232;6.826;2023-11-19T14:31:51;28.55;;;4.93;;
37049;SDS011;22958;51.232;6.826;2023-11-19T14:34:18;47.67;;;5.93;;
37049;SDS011;22958;51.232;6.826;2023-11-19T14:36:44;41.65;;;6.25;;
37049;SDS011;22958;51.232;6.826;2023-11-19T14:39:10;32.77;;;4.67;;
37049;SDS011;22958;51.232;6.826;2023-11-19T14:41:35;42.70;;;6.03;;
37049;SDS011;22958;51.232;6.826;2023-11-19T14:44:01;59.00;;;6.67;;
37049;SDS011;22958;51.232;6.826;2023-11-19T14:46:28;48.65;;;6.82;;
37049;SDS011;22958;51.232;6.826;2023-11-19T14:48:53;40.93;;;5.97;;
37049;SDS011;22958;51.232;6.826;2023-11-19T14:51:19;46.77;;;5.70;;
37049;SDS011;22958;51.232;6.826;2023-11-19T14:53:45;51.03;;;6.32;;
37049;SDS011;22958;51.232;6.826;2023-11-19T14:56:11;40.63;;;6.97;;
37049;SDS011;22958;51.232;6.826;2023-11-19T14:58:40;37.67;;;6.43;;
37049;SDS011;22958;51.232;6.826;2023-11-19T15:01:06;41.37;;;6.47;;
37049;SDS011;22958;51.232;6.826;2023-11-19T15:03:32;70.20;;;7.03;;
37049;SDS011;22958;51.232;6.826;2023-11-19T15:05:58;45.17;;;5.57;;
37049;SDS011;22958;51.232;6.826;2023-11-19T15:08:23;34.50;;;5.50;;
37049;SDS011;22958;51.232;6.826;2023-11-19T15:10:49;39.63;;;4.77;;
37049;SDS011;22958;51.232;6.826;2023-11-19T15:13:15;44.97;;;6.70;;
37049;SDS011;22958;51.232;6.826;2023-11-19T15:15:40;42.57;;;5.50;;
37049;SDS011;22958;51.232;6.826;2023-11-19T15:18:06;50.78;;;5.78;;
37049;SDS011;22958;51.232;6.826;2023-11-19T15:20:32;30.80;;;4.53;;
37049;SDS011;22958;51.232;6.826;2023-11-19T15:22:58;32.33;;;4.87;;